Time;durP1;ratioP1;P1;durP2;ratioP2;P2;SDS_P1;SDS_P2;PMS_P1;PMS_P2;Temp;Humidity;BMP_temperature;BMP_pressure;BME280_temperature;BME280_humidity;BME280_pressure;Samples;Min_cycle;Max_cycle;Signal;HPM_P1;HPM_P2
2023/02/19 00:00:18;;;;;;;10.60;3.80;;;;;;;3.51;70.29;98547.52;106743;1258;60382;-76
2023/02/19 00:02:47;;;;;;;10.40;4.40;;;;;;;3.57;70.11;98546.11;106967;1256;72058;-71
2023/02/19 00:05:17;;;;;;;12.00;4.40;;;;;;;3.54;69.88;98547.97;107343;1258;70647;-73
2023/02/19 00:07:46;;;;;;;12.70;4.10;;;;;;;3.50;69.73;98546.02;107093;1255;72469;-70
2023/02/19 00:10:15;;;;;;;12.30;3.90;;;;;;;3.50;69.70;98548.70;106582;1256;60540;-70
2023/02/19 00:12:43;;;;;;;10.10;3.90;;;;;;;3.47;69.84;98542.49;106989;1255;60524;-71
2023/02/19 00:15:13;;;;;;;10.90;3.90;;;;;;;3.44;69.74;98545.08;108185;1255;72828;-71
2023/02/19 00:17:42;;;;;;;10.80;4.10;;;;;;;3.42;69.70;98541.60;108195;1255;69170;-73
2023/02/19 00:20:15;;;;;;;11.90;3.50;;;;;;;3.50;69.80;98540.83;108277;1255;71479;-72
2023/02/19 00:22:45;;;;;;;8.80;3.30;;;;;;;3.54;69.82;98537.09;107991;1255;60513;-73
2023/02/19 00:25:14;;;;;;;12.70;3.90;;;;;;;3.51;69.63;98532.85;107813;1255;60412;-72
2023/02/19 00:27:42;;;;;;;8.90;3.60;;;;;;;3.47;69.51;98532.59;108863;1255;71665;-71
2023/02/19 00:30:11;;;;;;;8.70;3.50;;;;;;;3.44;69.90;98533.90;108633;1255;69417;-70
2023/02/19 00:32:40;;;;;;;9.40;3.50;;;;;;;3.41;69.87;98535.45;106861;1256;72355;-72
2023/02/19 00:35:11;;;;;;;11.90;4.20;;;;;;;3.37;69.94;98538.21;107677;1254;60634;-74
2023/02/19 00:37:39;;;;;;;6.80;3.40;;;;;;;3.33;69.92;98537.23;108193;1254;60634;-71
2023/02/19 00:40:08;;;;;;;8.10;3.30;;;;;;;3.36;69.84;98541.71;107880;1255;71910;-72
2023/02/19 00:42:37;;;;;;;7.30;3.00;;;;;;;3.47;69.69;98542.17;107846;1256;71254;-72
2023/02/19 00:45:05;;;;;;;10.10;3.10;;;;;;;3.47;69.71;98542.70;108519;1255;70546;-71
2023/02/19 00:47:33;;;;;;;8.00;3.40;;;;;;;3.43;69.90;98543.38;108762;1255;59930;-71
2023/02/19 00:50:02;;;;;;;7.30;3.40;;;;;;;3.40;69.65;98540.43;109012;1255;60297;-76
2023/02/19 00:52:30;;;;;;;10.10;4.00;;;;;;;3.37;69.82;98542.45;109193;1255;72570;-73
2023/02/19 00:54:58;;;;;;;8.60;3.40;;;;;;;3.34;69.76;98545.66;108742;1255;68791;-74
2023/02/19 00:57:27;;;;;;;11.80;3.70;;;;;;;3.33;69.89;98551.95;107988;1255;71765;-73
2023/02/19 00:59:56;;;;;;;8.40;3.10;;;;;;;3.31;69.84;98557.17;107336;1255;60339;-72
2023/02/19 01:02:25;;;;;;;10.50;3.10;;;;;;;3.30;70.06;98558.85;107482;1255;60298;-72
2023/02/19 01:04:56;;;;;;;9.70;3.60;;;;;;;3.39;69.97;98561.63;107525;1259;75248;-73
2023/02/19 01:07:25;;;;;;;13.00;3.40;;;;;;;3.44;69.73;98563.25;107703;1255;71208;-73
2023/02/19 01:09:53;;;;;;;10.00;3.60;;;;;;;3.41;69.81;98562.66;107593;1255;72619;-72
2023/02/19 01:12:24;;;;;;;10.50;3.40;;;;;;;3.39;69.92;98564.87;107741;1255;60541;-72
2023/02/19 01:14:54;;;;;;;10.10;3.20;;;;;;;3.37;70.11;98563.15;107428;1255;59294;-75
2023/02/19 01:17:23;;;;;;;10.90;4.10;;;;;;;3.33;70.00;98562.89;107290;1255;74257;-72
2023/02/19 01:19:52;;;;;;;11.30;3.90;;;;;;;3.33;70.08;98561.91;106228;1256;69924;-74
2023/02/19 01:22:20;;;;;;;10.10;3.60;;;;;;;3.31;69.89;98557.20;106120;1255;72234;-73
2023/02/19 01:24:48;;;;;;;9.00;2.90;;;;;;;3.37;70.09;98557.83;106188;1255;62452;-75
2023/02/19 01:27:17;;;;;;;7.20;3.10;;;;;;;3.46;69.99;98554.99;106345;1255;61550;-76
2023/02/19 01:29:49;;;;;;;13.70;3.50;;;;;;;3.45;69.97;98562.11;106267;1255;72912;-75
2023/02/19 01:32:17;;;;;;;11.00;3.40;;;;;;;3.41;70.00;98570.38;106246;1255;69636;-75
2023/02/19 01:34:46;;;;;;;13.60;4.60;;;;;;;3.38;69.91;98570.54;107133;1257;72821;-77
2023/02/19 01:37:14;;;;;;;10.10;3.10;;;;;;;3.33;70.33;98564.67;106980;1255;60461;-74
2023/02/19 01:39:42;;;;;;;11.00;3.80;;;;;;;3.31;70.43;98570.27;107345;1255;60499;-74
2023/02/19 01:42:13;;;;;;;7.50;3.40;;;;;;;3.30;70.42;98573.27;107270;1256;72809;-74
2023/02/19 01:44:41;;;;;;;8.30;3.10;;;;;;;3.27;70.32;98572.77;106570;1260;70001;-72
2023/02/19 01:47:10;;;;;;;6.60;2.80;;;;;;;3.34;70.45;98572.96;106230;1256;72875;-72
2023/02/19 01:49:47;;;;;;;9.30;3.90;;;;;;;3.45;70.43;98569.66;106115;1257;60471;-74
2023/02/19 01:52:45;;;;;;;12.50;4.10;;;;;;;3.44;70.28;98570.59;106141;1257;60416;-73
2023/02/19 01:55:15;;;;;;;13.30;3.30;;;;;;;3.41;70.53;98574.25;106930;1256;74770;-72
2023/02/19 01:57:45;;;;;;;9.60;3.80;;;;;;;3.39;70.54;98577.24;106894;1256;71404;-73
2023/02/19 02:00:16;;;;;;;10.40;4.30;;;;;;;3.34;70.47;98579.08;106480;1257;73618;-72
2023/02/19 02:02:48;;;;;;;12.80;4.20;;;;;;;3.30;70.61;98582.52;106416;1258;60495;-73
2023/02/19 02:05:38;;;;;;;15.00;3.80;;;;;;;3.26;70.67;98586.55;106143;1255;60524;-73
2023/02/19 02:10:54;;;;;;;7.40;3.30;;;;;;;3.31;70.98;98605.27;106166;1256;71375;-75
2023/02/19 02:13:22;;;;;;;9.80;3.40;;;;;;;3.35;70.94;98599.63;106207;1255;71725;-73
2023/02/19 02:16:22;;;;;;;8.50;3.50;;;;;;;3.32;70.96;98601.05;106112;1255;60752;-75
2023/02/19 02:19:15;;;;;;;12.30;4.30;;;;;;;3.28;71.23;98609.77;105859;1260;60423;-76
2023/02/19 02:21:50;;;;;;;8.80;3.60;;;;;;;3.24;71.24;98614.58;106231;1260;74678;-76
2023/02/19 02:24:59;;;;;;;12.30;4.10;;;;;;;3.19;71.41;98611.88;105998;1260;68573;-75
2023/02/19 02:27:28;;;;;;;7.40;3.30;;;;;;;3.19;71.77;98617.32;106116;1256;73667;-74
2023/02/19 02:30:04;;;;;;;9.10;4.00;;;;;;;3.29;71.69;98618.80;106060;1255;60605;-75
2023/02/19 02:32:52;;;;;;;9.60;3.40;;;;;;;3.29;71.57;98621.77;106227;1255;61512;-75
2023/02/19 02:35:27;;;;;;;13.70;5.40;;;;;;;3.25;71.73;98621.51;106114;1255;73553;-75
2023/02/19 02:37:57;;;;;;;11.10;3.70;;;;;;;3.20;71.93;98625.96;106097;1261;68736;-75
2023/02/19 02:40:29;;;;;;;10.50;3.90;;;;;;;3.17;72.11;98622.29;106103;1256;73869;-73
2023/02/19 02:42:59;;;;;;;11.60;4.20;;;;;;;3.11;72.05;98621.48;106129;1254;60615;-73
2023/02/19 02:45:35;;;;;;;10.60;3.80;;;;;;;3.08;72.28;98620.81;106210;1260;60538;-73
2023/02/19 02:48:19;;;;;;;14.50;3.80;;;;;;;3.16;72.35;98628.30;105975;1258;74762;-72
2023/02/19 02:50:52;;;;;;;13.20;3.90;;;;;;;3.09;72.49;98633.16;105689;1260;69795;-74
2023/02/19 02:56:12;;;;;;;12.30;4.30;;;;;;;2.88;72.86;98639.88;106787;1256;60550;-74
2023/02/19 02:58:42;;;;;;;10.50;3.80;;;;;;;2.80;73.37;98642.23;106761;1255;60456;-73
2023/02/19 03:04:13;;;;;;;9.40;4.60;;;;;;;2.83;73.83;98641.29;106070;1255;70932;-74
2023/02/19 03:06:41;;;;;;;9.50;4.00;;;;;;;2.86;73.55;98647.12;106126;1258;72684;-72
2023/02/19 03:09:13;;;;;;;11.50;4.00;;;;;;;2.79;74.09;98653.70;105814;1256;60444;-74
2023/02/19 03:20:40;;;;;;;8.80;4.10;;;;;;;2.57;74.79;98655.71;105965;1260;72978;-73
2023/02/19 03:23:09;;;;;;;12.30;3.90;;;;;;;2.56;74.83;98660.89;105961;1259;60456;-75
2023/02/19 03:31:26;;;;;;;13.20;3.80;;;;;;;2.32;75.46;98666.15;106183;1260;69412;-74
2023/02/19 03:34:04;;;;;;;10.80;3.40;;;;;;;2.28;75.85;98663.72;106461;1255;73940;-75
2023/02/19 03:36:38;;;;;;;11.10;4.00;;;;;;;2.38;75.73;98668.83;106894;1255;60439;-73
2023/02/19 03:39:08;;;;;;;11.40;3.60;;;;;;;2.42;75.58;98673.80;106577;1257;60377;-76
2023/02/19 03:42:09;;;;;;;10.40;4.00;;;;;;;2.41;75.72;98678.36;106124;1255;73658;-75
2023/02/19 03:45:00;;;;;;;10.60;4.40;;;;;;;2.42;75.91;98686.55;106056;1259;69407;-75
2023/02/19 03:47:35;;;;;;;9.60;3.80;;;;;;;2.40;75.90;98695.06;105886;1260;72747;-72
2023/02/19 03:50:13;;;;;;;8.90;3.40;;;;;;;2.42;75.81;98696.80;105912;1256;61058;-76
2023/02/19 03:53:01;;;;;;;9.10;3.70;;;;;;;2.49;75.93;98697.90;105900;1259;60563;-73
2023/02/19 03:55:37;;;;;;;9.20;4.20;;;;;;;2.44;75.95;98703.41;106001;1260;75165;-72
2023/02/19 03:58:19;;;;;;;9.30;3.50;;;;;;;2.36;76.36;98694.61;107294;1256;68247;-76
2023/02/19 04:00:54;;;;;;;9.30;4.20;;;;;;;2.27;76.41;98691.04;108232;1255;71139;-76
2023/02/19 04:03:44;;;;;;;9.40;3.60;;;;;;;2.21;76.62;98683.24;106563;1255;61343;-77
2023/02/19 04:06:27;;;;;;;11.50;4.20;;;;;;;2.27;76.57;98680.00;108276;1255;61161;-76
2023/02/19 04:09:02;;;;;;;10.10;4.40;;;;;;;2.26;76.63;98684.48;107633;1255;72939;-72
2023/02/19 04:11:30;;;;;;;9.70;3.90;;;;;;;2.21;76.95;98687.95;108003;1255;70499;-74
2023/02/19 04:14:22;;;;;;;15.10;4.90;;;;;;;2.15;77.38;98687.05;106453;1258;71776;-72
2023/02/19 04:16:54;;;;;;;11.90;4.20;;;;;;;2.12;77.67;98685.40;106081;1260;61187;-71
2023/02/19 04:19:25;;;;;;;11.50;4.40;;;;;;;2.21;77.85;98692.13;106734;1255;60449;-73
2023/02/19 04:21:54;;;;;;;10.90;4.60;;;;;;;2.24;77.80;98692.84;106409;1255;74043;-71
2023/02/19 04:24:30;;;;;;;16.70;5.10;;;;;;;2.20;78.09;98698.34;106191;1258;70021;-72
2023/02/19 04:26:58;;;;;;;9.30;4.90;;;;;;;2.14;78.50;98701.45;106085;1255;72667;-72
2023/02/19 04:29:26;;;;;;;9.30;4.40;;;;;;;2.08;78.76;98702.34;106387;1257;60728;-73
2023/02/19 04:31:54;;;;;;;12.90;4.90;;;;;;;2.05;78.91;98704.23;105892;1260;61050;-72
2023/02/19 04:34:23;;;;;;;8.30;5.40;;;;;;;2.12;78.64;98706.92;105867;1255;74847;-73
2023/02/19 04:36:51;;;;;;;12.40;4.10;;;;;;;2.10;78.93;98711.42;105276;1259;410562;-72
2023/02/19 04:41:17;;;;;;;13.50;5.10;;;;;;;1.96;79.59;98717.58;103651;1289;600387;-71
2023/02/19 04:43:46;;;;;;;13.40;4.60;;;;;;;1.87;79.78;98720.00;105336;1266;59254;-73
2023/02/19 04:46:17;;;;;;;9.30;3.90;;;;;;;1.90;79.80;98720.58;105158;1266;60249;-77
2023/02/19 04:48:45;;;;;;;11.10;3.90;;;;;;;1.92;79.85;98723.89;105560;1266;72267;-74
2023/02/19 04:51:14;;;;;;;10.80;4.90;;;;;;;1.84;79.72;98727.02;105690;1266;70349;-73
2023/02/19 04:53:43;;;;;;;9.40;4.70;;;;;;;1.76;79.83;98724.20;105721;1267;71969;-75
2023/02/19 04:56:14;;;;;;;7.90;4.20;;;;;;;1.70;79.88;98723.95;105850;1261;60295;-76
2023/02/19 04:58:43;;;;;;;8.00;3.50;;;;;;;1.75;79.88;98726.92;107386;1260;61521;-72
2023/02/19 05:01:11;;;;;;;10.00;4.60;;;;;;;1.78;79.74;98732.81;105983;1260;72839;-73
2023/02/19 05:03:40;;;;;;;10.20;4.30;;;;;;;1.71;79.44;98740.94;105790;1263;71056;-73
2023/02/19 05:06:11;;;;;;;12.00;4.10;;;;;;;1.64;79.49;98744.38;105422;1267;73701;-73
2023/02/19 05:08:39;;;;;;;10.80;3.80;;;;;;;1.58;79.48;98747.17;105596;1260;59587;-73
2023/02/19 05:11:09;;;;;;;8.30;3.20;;;;;;;1.53;79.44;98745.48;105560;1262;60995;-71
2023/02/19 05:13:41;;;;;;;8.10;3.90;;;;;;;1.58;79.28;98748.33;105534;1265;73973;-72
2023/02/19 05:16:17;;;;;;;10.00;3.50;;;;;;;1.60;79.17;98753.23;105823;1261;70206;-72
2023/02/19 05:18:46;;;;;;;8.90;3.30;;;;;;;1.54;79.36;98755.02;105546;1261;73502;-72
2023/02/19 05:21:14;;;;;;;14.30;4.70;;;;;;;1.48;79.69;98752.41;105594;1260;59937;-70
2023/02/19 05:23:43;;;;;;;11.20;3.90;;;;;;;1.42;80.03;98752.23;105658;1260;61113;-73
2023/02/19 05:26:16;;;;;;;8.30;3.30;;;;;;;1.47;80.28;98754.58;106413;1252;73338;-73
2023/02/19 05:28:47;;;;;;;11.00;3.90;;;;;;;1.51;80.38;98760.17;106232;1251;71637;-74
2023/02/19 05:31:15;;;;;;;8.50;4.00;;;;;;;1.46;80.65;98760.77;106385;1253;71453;-76
2023/02/19 05:33:47;;;;;;;10.30;4.10;;;;;;;1.41;80.76;98762.60;106483;1252;60747;-73
2023/02/19 05:36:17;;;;;;;11.40;4.70;;;;;;;1.40;80.97;98766.89;106535;1254;60585;-73
2023/02/19 05:38:45;;;;;;;12.10;4.50;;;;;;;1.50;80.88;98765.27;106585;1253;72534;-74
2023/02/19 05:41:17;;;;;;;9.80;4.30;;;;;;;1.57;80.85;98773.08;106473;1253;70542;-72
2023/02/19 05:43:49;;;;;;;;;;;;;;;1.54;81.13;98775.27;106526;1253;71989;-72
2023/02/19 05:46:19;;;;;;;12.20;5.90;;;;;;;1.50;81.03;98777.99;106508;1256;59749;-75
2023/02/19 05:48:48;;;;;;;11.30;4.10;;;;;;;1.48;80.95;98773.66;106218;1260;61747;-73
2023/02/19 05:51:18;;;;;;;12.70;3.80;;;;;;;1.54;80.73;98779.21;106459;1252;71514;-73
2023/02/19 05:53:46;;;;;;;10.40;3.40;;;;;;;1.69;80.35;98787.38;106333;1256;68496;-71
2023/02/19 05:56:30;;;;;;;11.30;4.40;;;;;;;1.71;80.06;98790.64;107374;1253;72973;-71
2023/02/19 05:59:00;;;;;;;10.90;4.40;;;;;;;1.71;80.06;98791.21;107725;1252;59631;-72
2023/02/19 06:01:28;;;;;;;10.50;3.80;;;;;;;1.72;79.73;98791.27;108042;1253;60205;-73
2023/02/19 06:03:58;;;;;;;10.60;3.70;;;;;;;1.73;79.23;98793.48;108010;1253;71978;-72
2023/02/19 06:06:28;;;;;;;12.00;3.80;;;;;;;1.85;78.84;98794.71;108291;1252;69861;-72
2023/02/19 06:08:57;;;;;;;7.20;3.10;;;;;;;1.99;78.04;98797.98;108932;1252;72700;-77
2023/02/19 06:11:28;;;;;;;10.10;3.80;;;;;;;2.02;77.81;98797.54;108584;1253;59471;-71
2023/02/19 06:13:56;;;;;;;10.50;4.10;;;;;;;2.04;77.65;98794.95;108467;1252;60406;-73
2023/02/19 06:16:25;;;;;;;8.10;3.50;;;;;;;2.06;77.41;98793.38;108290;1252;71750;-71
2023/02/19 06:18:54;;;;;;;10.40;3.90;;;;;;;2.08;76.94;98788.66;107894;1253;69995;-73
2023/02/19 06:21:22;;;;;;;7.60;3.60;;;;;;;2.21;76.95;98790.44;108137;1253;72740;-73
2023/02/19 06:23:51;;;;;;;11.60;4.40;;;;;;;2.28;76.35;98782.13;108111;1253;61003;-72
2023/02/19 06:26:21;;;;;;;8.40;3.80;;;;;;;2.35;76.00;98790.05;108546;1252;59535;-72
2023/02/19 06:28:52;;;;;;;13.30;4.30;;;;;;;2.37;76.15;98787.98;108348;1253;73091;-74
2023/02/19 06:31:22;;;;;;;9.40;3.50;;;;;;;2.38;75.67;98792.23;108250;1251;69160;-73
2023/02/19 06:33:50;;;;;;;9.30;4.00;;;;;;;2.41;75.58;98796.75;108300;1253;71355;-73
2023/02/19 06:36:19;;;;;;;8.60;3.40;;;;;;;2.46;75.49;98795.06;108427;1252;62378;-72
2023/02/19 06:38:48;;;;;;;13.00;3.80;;;;;;;2.60;75.40;98787.10;109200;1251;60542;-72
2023/02/19 06:41:19;;;;;;;11.00;4.00;;;;;;;2.69;75.16;98793.59;109407;1253;73064;-74
2023/02/19 06:43:48;;;;;;;8.40;3.90;;;;;;;2.71;75.45;98799.21;109246;1253;70379;-74
2023/02/19 06:46:17;;;;;;;8.90;4.10;;;;;;;2.70;75.33;98802.31;109036;1251;71912;-72
2023/02/19 06:48:46;;;;;;;11.00;3.90;;;;;;;2.67;75.39;98804.96;108257;1253;60023;-72
2023/02/19 06:51:25;;;;;;;9.70;3.80;;;;;;;2.71;75.79;98807.64;108123;1253;60224;-73
2023/02/19 06:53:55;;;;;;;12.50;3.80;;;;;;;2.85;75.74;98810.55;107884;1256;73183;-74
2023/02/19 06:56:29;;;;;;;13.60;4.50;;;;;;;2.89;75.91;98807.88;108115;1252;70114;-73
2023/02/19 06:59:01;;;;;;;9.60;4.30;;;;;;;2.90;76.23;98805.17;108579;1252;71893;-71
2023/02/19 07:01:31;;;;;;;11.70;4.50;;;;;;;2.90;76.52;98798.82;108038;1253;59308;-73
2023/02/19 07:04:00;;;;;;;9.50;3.80;;;;;;;2.91;76.91;98803.26;108964;1252;60169;-72
2023/02/19 07:06:30;;;;;;;9.00;4.20;;;;;;;3.00;76.64;98797.28;108562;1253;72103;-74
2023/02/19 07:08:59;;;;;;;8.70;4.00;;;;;;;3.12;76.45;98797.58;107448;1253;70310;-76
2023/02/19 07:11:30;;;;;;;10.10;4.40;;;;;;;3.12;76.59;98796.27;107938;1253;71077;-76
2023/02/19 07:14:02;;;;;;;11.90;4.50;;;;;;;3.11;76.65;98801.29;106699;1253;59632;-72
2023/02/19 07:16:31;;;;;;;9.60;4.50;;;;;;;3.10;76.59;98802.96;106110;1253;61550;-72
2023/02/19 07:19:00;;;;;;;9.50;4.10;;;;;;;3.14;76.56;98803.30;106384;1255;74169;-73
2023/02/19 07:21:30;;;;;;;9.10;3.80;;;;;;;3.26;76.30;98802.70;106093;1260;69953;-74
2023/02/19 07:23:59;;;;;;;9.60;4.30;;;;;;;3.27;75.86;98804.83;106273;1253;72702;-76
2023/02/19 07:26:27;;;;;;;11.70;5.00;;;;;;;3.25;76.03;98802.09;106400;1255;61291;-74
2023/02/19 07:28:58;;;;;;;7.00;4.10;;;;;;;3.24;76.36;98799.24;106461;1253;60343;-84
2023/02/19 07:31:27;;;;;;;10.40;4.20;;;;;;;3.25;76.24;98800.52;107370;1253;72986;-80
2023/02/19 07:33:58;;;;;;;10.00;3.80;;;;;;;3.30;76.25;98799.67;106676;1253;71499;-82
2023/02/19 07:36:29;;;;;;;10.70;3.70;;;;;;;3.48;75.62;98799.70;106719;1258;73854;-81
2023/02/19 07:38:58;;;;;;;10.00;3.30;;;;;;;3.57;75.62;98804.64;106774;1258;59263;-77
2023/02/19 07:41:28;;;;;;;10.80;3.90;;;;;;;3.62;74.89;98806.16;106394;1253;61591;-79
2023/02/19 07:43:58;;;;;;;8.80;3.80;;;;;;;3.66;74.27;98810.95;106936;1257;72080;-79
2023/02/19 07:46:28;;;;;;;10.50;4.00;;;;;;;3.70;73.75;98814.21;106608;1253;69805;-79
2023/02/19 07:48:58;;;;;;;9.60;3.60;;;;;;;3.75;73.49;98818.20;106382;1253;71657;-81
2023/02/19 07:51:28;;;;;;;7.20;3.70;;;;;;;3.85;72.92;98821.66;106338;1253;60909;-82
2023/02/19 07:54:00;;;;;;;12.50;4.10;;;;;;;3.96;72.72;98819.15;106426;1253;59637;-80
2023/02/19 07:56:29;;;;;;;8.20;3.20;;;;;;;3.96;72.44;98830.68;106161;1257;74228;-76
2023/02/19 07:58:59;;;;;;;8.20;3.40;;;;;;;3.91;72.15;98827.28;105958;1253;71287;-79
2023/02/19 08:04:15;;;;;;;6.90;3.10;;;;;;;3.84;72.38;98825.02;109298;1253;59239;-78
2023/02/19 08:06:43;;;;;;;5.60;2.90;;;;;;;3.90;72.07;98834.23;107574;1253;60346;-78
2023/02/19 08:09:14;;;;;;;7.30;3.40;;;;;;;3.99;71.91;98829.75;106761;1257;72929;-78
2023/02/19 08:14:39;;;;;;;8.60;3.60;;;;;;;3.94;72.41;98834.02;106341;1253;72944;-81
2023/02/19 08:17:10;;;;;;;7.80;3.50;;;;;;;3.98;72.11;98834.22;108141;1254;59507;-80
2023/02/19 08:19:58;;;;;;;9.70;3.60;;;;;;;3.99;71.99;98838.30;108635;1253;59978;-81
2023/02/19 08:22:27;;;;;;;7.50;3.50;;;;;;;4.00;71.80;98845.09;107388;1253;72902;-78
2023/02/19 08:24:57;;;;;;;11.20;3.60;;;;;;;4.01;71.51;98853.88;107893;1253;71496;-77
2023/02/19 08:27:28;;;;;;;8.60;2.80;;;;;;;4.11;70.38;98852.20;107587;1253;72959;-83
2023/02/19 08:30:03;;;;;;;9.00;3.20;;;;;;;4.11;70.01;98856.21;106556;1261;59725;-80
2023/02/19 08:32:35;;;;;;;6.70;3.70;;;;;;;4.06;70.37;98855.83;106604;1258;59978;-82
2023/02/19 08:35:06;;;;;;;11.90;3.50;;;;;;;3.97;70.16;98844.09;106830;1253;74181;-76
2023/02/19 08:37:35;;;;;;;10.90;3.40;;;;;;;3.94;70.14;98848.04;106143;1255;71692;-79
2023/02/19 08:40:11;;;;;;;5.30;2.70;;;;;;;3.92;69.95;98852.14;106572;1256;74097;-81
2023/02/19 08:42:39;;;;;;;9.30;3.50;;;;;;;3.86;69.64;98856.00;106636;1253;60827;-77
2023/02/19 08:45:09;;;;;;;9.70;3.40;;;;;;;3.78;69.91;98850.13;106183;1253;59639;-74
2023/02/19 08:47:38;;;;;;;7.40;3.00;;;;;;;3.73;70.22;98842.32;106286;1256;73938;-77
2023/02/19 08:50:07;;;;;;;9.30;3.00;;;;;;;3.85;69.93;98842.79;106043;1258;69416;-76
2023/02/19 08:52:35;;;;;;;11.90;3.30;;;;;;;3.92;70.29;98845.67;106438;1253;71648;-76
2023/02/19 08:55:04;;;;;;;11.00;3.40;;;;;;;3.96;69.64;98847.53;106368;1253;60345;-73
2023/02/19 08:57:37;;;;;;;9.60;3.50;;;;;;;3.98;69.60;98842.66;106407;1252;60384;-79
2023/02/19 09:00:06;;;;;;;7.90;3.30;;;;;;;3.97;69.10;98848.33;106597;1252;74792;-75
2023/02/19 09:02:36;;;;;;;9.60;3.80;;;;;;;3.92;68.63;98843.98;108080;1251;68790;-76
2023/02/19 09:05:05;;;;;;;12.70;4.30;;;;;;;3.87;68.92;98845.21;108616;1251;72635;-76
2023/02/19 09:07:35;;;;;;;7.60;3.40;;;;;;;3.81;69.03;98837.88;107772;1251;60405;-74
2023/02/19 09:10:03;;;;;;;7.30;3.00;;;;;;;3.75;69.06;98836.89;106543;1251;60414;-74
2023/02/19 09:12:32;;;;;;;8.50;3.60;;;;;;;3.70;68.99;98834.63;106375;1256;74775;-76
2023/02/19 09:15:05;;;;;;;7.50;4.30;;;;;;;3.68;68.85;98828.44;106290;1253;69506;-74
2023/02/19 09:17:35;;;;;;;13.00;5.70;;;;;;;3.75;68.81;98827.95;106366;1253;71603;-74
2023/02/19 09:20:03;;;;;;;8.80;3.30;;;;;;;3.74;68.74;98827.34;106639;1252;60926;-77
2023/02/19 09:22:32;;;;;;;8.70;3.20;;;;;;;3.73;69.19;98826.62;106459;1257;61478;-75
2023/02/19 09:25:01;;;;;;;7.30;3.40;;;;;;;3.71;69.16;98828.87;106605;1252;74732;-76
2023/02/19 09:27:31;;;;;;;11.00;3.70;;;;;;;3.67;69.01;98829.58;106296;1251;70921;-78
2023/02/19 09:29:59;;;;;;;11.10;3.50;;;;;;;3.61;69.44;98819.52;106234;1253;72472;-78
2023/02/19 09:32:30;;;;;;;9.60;3.30;;;;;;;3.52;69.33;98826.28;106145;1253;60570;-76
2023/02/19 09:35:16;;;;;;;10.00;3.70;;;;;;;3.45;69.82;98826.77;106435;1253;60525;-77
2023/02/19 09:37:51;;;;;;;5.30;2.90;;;;;;;3.45;69.74;98834.16;106335;1253;73111;-76
2023/02/19 09:40:20;;;;;;;11.30;4.00;;;;;;;3.53;69.57;98830.91;106475;1255;70303;-75
2023/02/19 09:42:53;;;;;;;11.50;5.30;;;;;;;3.51;69.82;98836.38;106785;1252;72920;-79
2023/02/19 09:45:22;;;;;;;9.80;4.20;;;;;;;3.48;69.57;98842.96;106634;1251;60784;-77
2023/02/19 09:47:55;;;;;;;8.40;4.90;;;;;;;3.45;69.37;98837.62;106273;1254;60311;-76
2023/02/19 09:50:30;;;;;;;8.70;3.60;;;;;;;3.45;69.82;98830.87;106208;1253;72916;-75
2023/02/19 09:53:02;;;;;;;12.10;3.70;;;;;;;3.47;69.49;98826.30;106330;1256;71784;-74
2023/02/19 09:55:33;;;;;;;8.20;3.10;;;;;;;3.50;69.64;98828.05;106911;1252;72592;-72
2023/02/19 09:58:13;;;;;;;14.10;5.30;;;;;;;3.56;69.18;98820.70;106480;1254;60446;-71
2023/02/19 10:00:41;;;;;;;9.90;3.90;;;;;;;3.61;68.92;98812.38;106070;1255;60840;-72
2023/02/19 10:03:11;;;;;;;8.40;3.70;;;;;;;3.65;69.04;98809.13;105780;1253;72912;-73
2023/02/19 10:05:39;;;;;;;9.60;4.10;;;;;;;3.79;68.78;98805.17;108780;1252;69889;-73
2023/02/19 10:08:13;;;;;;;11.70;4.20;;;;;;;3.91;68.46;98801.06;108156;1251;73484;-72
2023/02/19 10:10:43;;;;;;;8.40;3.10;;;;;;;3.92;67.55;98806.20;106324;1253;60418;-74
2023/02/19 10:13:19;;;;;;;9.30;4.30;;;;;;;3.89;67.94;98806.70;106256;1254;61237;-74
2023/02/19 10:15:55;;;;;;;10.60;3.40;;;;;;;3.87;67.93;98798.16;106109;1253;71796;-69
2023/02/19 10:18:28;;;;;;;11.40;3.60;;;;;;;3.81;67.92;98789.93;105805;1252;69226;-73
2023/02/19 10:20:56;;;;;;;11.10;3.40;;;;;;;3.72;67.74;98786.03;105966;1253;72525;-69
2023/02/19 10:23:24;;;;;;;8.40;4.20;;;;;;;3.66;68.51;98787.69;106003;1253;60422;-72
2023/02/19 10:25:57;;;;;;;14.40;4.90;;;;;;;3.62;68.68;98788.81;105751;1253;60535;-71
2023/02/19 10:28:29;;;;;;;7.00;3.40;;;;;;;3.61;68.48;98781.84;105815;1253;74808;-76
2023/02/19 10:31:00;;;;;;;8.60;3.70;;;;;;;3.62;67.74;98781.91;105954;1253;71076;-73
2023/02/19 10:33:29;;;;;;;11.00;4.00;;;;;;;3.64;67.48;98775.48;105903;1254;71916;-74
2023/02/19 10:36:05;;;;;;;9.10;3.20;;;;;;;3.65;67.33;98772.59;105615;1257;60460;-73
2023/02/19 10:38:35;;;;;;;9.30;3.40;;;;;;;3.63;67.31;98767.98;105967;1259;61098;-72
2023/02/19 10:41:19;;;;;;;6.80;3.10;;;;;;;3.62;67.11;98757.79;105593;1254;73815;-74
2023/02/19 10:43:56;;;;;;;8.60;3.00;;;;;;;3.60;67.22;98748.66;105807;1253;71583;-73
2023/02/19 10:46:27;;;;;;;7.10;2.90;;;;;;;3.58;66.81;98746.14;106200;1253;72410;-72
2023/02/19 10:49:03;;;;;;;9.50;2.90;;;;;;;3.55;66.56;98743.42;106183;1251;60538;-71
2023/02/19 10:51:34;;;;;;;8.40;3.00;;;;;;;3.51;66.87;98739.21;105934;1251;60604;-71
2023/02/19 10:54:30;;;;;;;9.30;3.40;;;;;;;3.48;66.88;98735.63;105747;1253;73358;-74
2023/02/19 10:57:15;;;;;;;6.20;2.80;;;;;;;3.49;67.22;98727.73;106606;1251;71478;-76
2023/02/19 10:59:52;;;;;;;8.20;2.60;;;;;;;3.65;67.27;98720.05;107223;1251;73018;-73
2023/02/19 11:02:20;;;;;;;7.30;3.10;;;;;;;3.83;66.94;98714.05;107155;1251;60745;-75
2023/02/19 11:05:15;;;;;;;7.80;3.10;;;;;;;3.89;66.36;98706.31;106977;1253;60400;-70
2023/02/19 11:07:53;;;;;;;9.10;3.00;;;;;;;3.92;66.24;98702.63;107057;1255;72939;-71
2023/02/19 11:10:41;;;;;;;8.20;2.90;;;;;;;3.97;66.22;98699.78;106988;1253;68701;-71
2023/02/19 11:13:15;;;;;;;6.20;3.00;;;;;;;4.02;65.97;98689.97;106624;1252;71982;-71
2023/02/19 11:15:43;;;;;;;6.00;2.10;;;;;;;4.02;65.13;98688.23;107538;1252;60458;-72
2023/02/19 11:18:12;;;;;;;6.70;3.10;;;;;;;3.99;65.04;98681.84;106949;1253;61428;-74
2023/02/19 11:20:55;;;;;;;7.50;2.70;;;;;;;3.95;64.61;98680.30;107099;1252;73540;-72
2023/02/19 11:23:31;;;;;;;6.10;2.80;;;;;;;3.94;64.66;98679.37;108812;1252;69177;-71
2023/02/19 11:26:02;;;;;;;10.50;2.90;;;;;;;3.92;64.45;98672.16;106634;1253;71807;-74
2023/02/19 11:28:31;;;;;;;6.60;2.60;;;;;;;3.92;64.65;98672.18;106804;1254;60362;-72
2023/02/19 11:31:18;;;;;;;13.00;2.70;;;;;;;3.91;64.28;98673.50;106906;1253;60213;-74
2023/02/19 11:34:00;;;;;;;6.70;2.60;;;;;;;3.88;63.72;98671.70;107012;1253;74410;-73
2023/02/19 11:36:33;;;;;;;7.30;2.60;;;;;;;3.85;64.30;98671.14;107155;1253;71199;-72
2023/02/19 11:39:15;;;;;;;8.80;3.30;;;;;;;3.85;64.29;98667.83;107426;1255;72577;-72
2023/02/19 11:41:56;;;;;;;7.30;3.10;;;;;;;3.84;64.07;98666.83;109214;1251;58467;-73
2023/02/19 11:44:42;;;;;;;13.40;3.50;;;;;;;3.84;64.43;98668.41;109365;1252;58468;-71
2023/02/19 11:47:49;;;;;;;5.80;2.40;;;;;;;3.86;64.98;98671.36;108445;1252;73894;-72
2023/02/19 11:50:49;;;;;;;10.40;4.30;;;;;;;3.90;64.43;98671.73;107005;1263;69472;-72
2023/02/19 11:53:24;;;;;;;7.90;3.40;;;;;;;3.92;64.53;98675.86;108003;1253;72588;-75
2023/02/19 11:56:43;;;;;;;10.00;4.20;;;;;;;3.94;64.05;98677.04;108199;1253;60427;-72
2023/02/19 11:59:20;;;;;;;8.90;3.40;;;;;;;3.98;64.02;98679.03;108053;1253;59324;-74
2023/02/19 12:02:13;;;;;;;4.60;2.70;;;;;;;4.00;63.98;98675.95;108068;1253;73814;-74
2023/02/19 12:04:51;;;;;;;;;;;;;;;4.01;63.56;98681.13;107605;1255;70334;-75
2023/02/19 12:07:47;;;;;;;7.30;2.70;;;;;;;4.00;63.38;98678.59;108117;1253;72981;-75
2023/02/19 12:10:18;;;;;;;;;;;;;;;4.00;63.49;98678.91;108649;1253;60559;-76
2023/02/19 12:13:09;;;;;;;9.90;2.90;;;;;;;4.03;63.46;98680.05;108995;1251;59647;-74
2023/02/19 12:15:53;;;;;;;6.70;2.70;;;;;;;4.04;63.36;98682.04;108175;1253;73662;-76
2023/02/19 12:19:02;;;;;;;7.20;2.50;;;;;;;4.05;63.50;98681.40;107464;1253;70238;-74
2023/02/19 12:21:50;;;;;;;7.00;2.90;;;;;;;4.03;63.09;98679.73;106210;1253;72469;-76
2023/02/19 12:24:26;;;;;;;8.10;4.00;;;;;;;4.02;63.54;98677.17;105936;1253;60535;-78
2023/02/19 12:27:00;;;;;;;5.60;3.60;;;;;;;4.03;63.63;98681.66;105907;1258;62121;-76